createdAt,value
2018-07-24T00:00:14.194Z,50.70
2018-07-24T00:02:41.952Z,50.09
2018-07-24T00:05:09.681Z,50.48
2018-07-24T00:07:37.971Z,49.97
2018-07-24T00:10:05.903Z,50.61
2018-07-24T00:12:33.961Z,50.21
2018-07-24T00:15:01.688Z,49.95
2018-07-24T00:17:29.366Z,50.11
2018-07-24T00:19:57.390Z,50.43
2018-07-24T00:22:25.396Z,50.82
2018-07-24T00:24:53.119Z,50.58
2018-07-24T00:27:21.389Z,50.50
2018-07-24T00:29:49.116Z,51.15
2018-07-24T00:32:16.963Z,51.09
2018-07-24T00:34:44.611Z,51.24
2018-07-24T00:37:12.274Z,51.21
2018-07-24T00:39:40.183Z,51.43
2018-07-24T00:42:08.192Z,51.32
2018-07-24T00:44:35.903Z,51.33
2018-07-24T00:47:03.681Z,51.43
2018-07-24T00:49:31.790Z,50.69
2018-07-24T00:51:59.527Z,51.75
2018-07-24T00:54:27.876Z,50.79
2018-07-24T00:56:55.621Z,51.58
2018-07-24T00:59:23.553Z,50.53
2018-07-24T01:01:51.498Z,51.22
2018-07-24T01:04:19.155Z,50.94
2018-07-24T01:06:47.610Z,50.59
2018-07-24T01:09:15.287Z,51.35
2018-07-24T01:11:43.017Z,51.57
2018-07-24T01:14:10.853Z,50.65
2018-07-24T01:16:38.572Z,50.79
2018-07-24T01:19:06.333Z,50.87
2018-07-24T01:21:34.427Z,51.13
2018-07-24T01:24:02.153Z,52.03
2018-07-24T01:26:30.134Z,51.43
2018-07-24T01:28:58.361Z,51.05
2018-07-24T01:31:26.358Z,51.81
2018-07-24T01:33:54.376Z,51.70
2018-07-24T01:36:22.116Z,52.72
2018-07-24T01:38:49.810Z,51.67
2018-07-24T01:41:17.530Z,52.53
2018-07-24T01:43:45.467Z,51.65
2018-07-24T01:46:13.120Z,51.25
2018-07-24T01:48:40.805Z,51.47
2018-07-24T01:51:08.512Z,51.08
2018-07-24T01:53:36.286Z,51.74
2018-07-24T01:56:04.241Z,51.61
2018-07-24T01:58:32.269Z,51.11
2018-07-24T02:01:02.203Z,51.10
2018-07-24T02:03:30.610Z,51.52
2018-07-24T02:05:58.336Z,51.07
2018-07-24T02:08:26.096Z,51.21
2018-07-24T02:10:53.802Z,51.06
2018-07-24T02:13:21.770Z,51.70
2018-07-24T02:15:49.857Z,52.08
2018-07-24T02:18:17.535Z,51.28
2018-07-24T02:20:45.244Z,51.88
2018-07-24T02:23:13.162Z,51.32
2018-07-24T02:25:41.147Z,51.56
2018-07-24T02:28:09.610Z,51.47
2018-07-24T02:30:37.717Z,50.84
2018-07-24T02:33:05.486Z,51.27
2018-07-24T02:35:33.489Z,50.92
2018-07-24T02:38:01.855Z,51.62
2018-07-24T02:40:29.559Z,51.66
2018-07-24T02:42:57.537Z,51.26
2018-07-24T02:45:25.527Z,51.18
2018-07-24T02:47:53.721Z,51.03
2018-07-24T02:50:21.385Z,50.75
2018-07-24T02:52:49.683Z,51.07
2018-07-24T02:55:17.706Z,50.86
2018-07-24T02:57:45.730Z,51.09
2018-07-24T03:00:13.684Z,50.97
2018-07-24T03:02:41.433Z,51.12
2018-07-24T03:05:09.378Z,51.62
2018-07-24T03:07:37.683Z,50.67
2018-07-24T03:10:05.776Z,51.70
2018-07-24T03:12:33.657Z,50.55
2018-07-24T03:15:01.344Z,51.40
2018-07-24T03:17:29.388Z,51.37
2018-07-24T03:19:57.090Z,51.64
2018-07-24T03:22:24.740Z,51.12
2018-07-24T03:24:53.110Z,51.33
2018-07-24T03:27:20.792Z,51.40
2018-07-24T03:29:48.766Z,50.57
2018-07-24T03:32:17.011Z,50.94
2018-07-24T03:34:45.034Z,51.33
2018-07-24T03:37:12.762Z,50.97
2018-07-24T03:39:41.060Z,51.34
2018-07-24T03:42:08.743Z,50.99
2018-07-24T03:44:37.138Z,51.14
2018-07-24T03:47:04.956Z,51.77
2018-07-24T03:49:32.746Z,51.07
2018-07-24T03:52:00.483Z,50.96
2018-07-24T03:54:28.141Z,51.28
2018-07-24T03:56:55.863Z,50.85
2018-07-24T03:59:23.935Z,50.75
2018-07-24T04:01:51.678Z,50.62
2018-07-24T04:04:19.638Z,50.66
2018-07-24T04:06:47.337Z,50.67
2018-07-24T04:09:15.045Z,51.64
2018-07-24T04:11:42.762Z,51.47
2018-07-24T04:14:10.945Z,51.11
2018-07-24T04:16:39.229Z,51.16
2018-07-24T04:19:07.531Z,50.75
2018-07-24T04:21:35.515Z,51.31
2018-07-24T04:24:03.230Z,51.35
2018-07-24T04:26:31.717Z,51.08
2018-07-24T04:28:59.397Z,51.66
2018-07-24T04:31:27.409Z,51.11
2018-07-24T04:33:55.368Z,50.83
2018-07-24T04:36:23.013Z,50.47
2018-07-24T04:41:32.485Z,50.20
2018-07-24T04:44:00.451Z,50.51
2018-07-24T04:46:28.145Z,51.04
2018-07-24T04:48:55.796Z,50.60
2018-07-24T04:51:23.421Z,50.76
2018-07-24T04:53:51.364Z,50.12
2018-07-24T04:56:19.273Z,50.65
2018-07-24T04:58:46.906Z,50.60
2018-07-24T05:01:14.702Z,51.21
2018-07-24T05:03:42.409Z,51.03
2018-07-24T05:06:10.538Z,51.52
2018-07-24T05:08:38.187Z,52.08
2018-07-24T05:11:06.044Z,51.61
2018-07-24T05:13:33.922Z,52.12
2018-07-24T05:16:01.937Z,51.89
2018-07-24T05:18:29.850Z,51.73
2018-07-24T05:20:57.525Z,51.05
2018-07-24T05:23:26.560Z,50.79
2018-07-24T05:25:54.302Z,50.67
2018-07-24T05:28:21.989Z,51.24
2018-07-24T05:30:49.714Z,50.43
2018-07-24T05:33:17.682Z,51.05
2018-07-24T05:35:45.909Z,50.24
2018-07-24T05:38:13.609Z,49.88
2018-07-24T05:40:41.377Z,50.57
2018-07-24T05:43:09.053Z,50.48
2018-07-24T05:45:36.689Z,50.02
2018-07-24T05:48:04.851Z,50.83
2018-07-24T05:50:32.561Z,50.57
2018-07-24T05:53:00.241Z,50.11
2018-07-24T05:55:28.563Z,50.11
2018-07-24T05:57:56.651Z,50.07
2018-07-24T06:00:24.903Z,50.24
2018-07-24T06:02:52.636Z,49.77
2018-07-24T06:05:20.401Z,49.32
2018-07-24T06:07:48.386Z,49.40
2018-07-24T06:10:16.147Z,49.78
2018-07-24T06:12:44.133Z,50.08
2018-07-24T06:15:12.100Z,49.75
2018-07-24T06:17:40.274Z,50.24
2018-07-24T06:20:09.562Z,50.52
2018-07-24T06:22:37.748Z,50.32
2018-07-24T06:25:05.387Z,49.89
2018-07-24T06:27:33.602Z,50.46
2018-07-24T06:30:01.267Z,50.36
2018-07-24T06:32:28.949Z,50.36
2018-07-24T06:34:56.976Z,49.70
2018-07-24T06:37:24.636Z,49.77
2018-07-24T06:39:52.745Z,50.33
2018-07-24T06:42:20.401Z,50.09
2018-07-24T06:44:48.557Z,50.29
2018-07-24T06:47:16.235Z,49.65
2018-07-24T06:49:44.674Z,50.58
2018-07-24T06:54:47.014Z,50.67
2018-07-24T06:57:14.997Z,49.72
2018-07-24T06:59:43.108Z,49.92
2018-07-24T07:02:10.809Z,50.21
2018-07-24T07:04:38.765Z,50.12
2018-07-24T07:07:07.170Z,49.89
2018-07-24T07:09:34.806Z,50.20
2018-07-24T07:12:02.556Z,50.07
2018-07-24T07:14:30.651Z,49.63
2018-07-24T07:16:58.330Z,49.30
2018-07-24T07:19:25.981Z,49.82
2018-07-24T07:21:53.682Z,50.36
2018-07-24T07:24:21.810Z,49.53
2018-07-24T07:26:49.460Z,49.60
2018-07-24T07:29:17.577Z,49.55
2018-07-24T07:31:45.249Z,49.96
2018-07-24T07:34:12.885Z,48.83
2018-07-24T07:36:40.632Z,49.15
2018-07-24T07:39:09.401Z,49.76
2018-07-24T07:41:37.054Z,49.15
2018-07-24T07:44:04.795Z,49.59
2018-07-24T07:46:32.478Z,49.09
2018-07-24T07:49:00.550Z,49.00
2018-07-24T07:51:28.541Z,49.69
2018-07-24T07:53:56.403Z,49.77
2018-07-24T07:56:24.572Z,49.77
2018-07-24T07:58:52.546Z,48.55
2018-07-24T08:01:20.787Z,49.29
2018-07-24T08:03:49.122Z,48.65
2018-07-24T08:06:17.035Z,48.85
2018-07-24T08:08:45.170Z,48.76
2018-07-24T08:11:12.926Z,49.63
2018-07-24T08:13:40.570Z,48.56
2018-07-24T08:16:08.418Z,49.50
2018-07-24T08:18:36.360Z,48.69
2018-07-24T08:21:04.073Z,48.94
2018-07-24T08:23:31.776Z,49.33
2018-07-24T08:25:59.878Z,49.12
2018-07-24T08:28:27.519Z,48.99
2018-07-24T08:30:55.657Z,49.02
2018-07-24T08:33:23.348Z,48.28
2018-07-24T08:35:51.357Z,48.70
2018-07-24T08:38:19.613Z,48.18
2018-07-24T08:40:47.325Z,49.06
2018-07-24T08:43:15.056Z,48.56
2018-07-24T08:45:43.066Z,48.41
2018-07-24T08:48:10.718Z,48.48
2018-07-24T08:50:38.487Z,49.08
2018-07-24T08:53:06.580Z,48.05
2018-07-24T08:55:34.984Z,48.80
2018-07-24T08:58:02.481Z,48.61
2018-07-24T09:00:30.490Z,48.33
2018-07-24T09:02:58.435Z,48.89
2018-07-24T09:05:26.672Z,47.96
2018-07-24T09:07:54.349Z,47.75
2018-07-24T09:10:22.378Z,48.27
2018-07-24T09:12:50.344Z,47.71
2018-07-24T09:15:18.319Z,48.30
2018-07-24T09:17:45.929Z,48.22
2018-07-24T09:20:14.314Z,47.48
2018-07-24T09:22:41.951Z,47.38
2018-07-24T09:25:09.838Z,47.97
2018-07-24T09:27:37.515Z,47.71
2018-07-24T09:30:05.224Z,47.19
2018-07-24T09:32:33.090Z,47.15
2018-07-24T09:35:00.957Z,47.20
2018-07-24T09:37:29.148Z,47.83
2018-07-24T09:39:56.895Z,47.98
2018-07-24T09:42:24.849Z,47.22
2018-07-24T09:44:52.722Z,47.41
2018-07-24T09:47:20.353Z,47.21
2018-07-24T09:49:47.978Z,47.35
2018-07-24T09:52:15.939Z,47.03
2018-07-24T09:54:43.549Z,47.31
2018-07-24T09:57:11.353Z,47.33
2018-07-24T09:59:39.506Z,47.22
2018-07-24T10:02:07.752Z,47.46
2018-07-24T10:04:35.702Z,47.57
2018-07-24T10:07:03.577Z,47.29
2018-07-24T10:09:31.445Z,47.08
2018-07-24T10:11:59.061Z,47.44
2018-07-24T10:14:27.441Z,47.27
2018-07-24T10:16:56.188Z,46.36
2018-07-24T10:19:24.995Z,47.24
2018-07-24T10:21:53.131Z,46.50
2018-07-24T10:24:21.419Z,47.00
2018-07-24T10:26:49.255Z,46.29
2018-07-24T10:29:16.915Z,46.20
2018-07-24T10:31:44.887Z,46.75
2018-07-24T10:34:12.640Z,46.17
2018-07-24T10:36:40.264Z,46.28
2018-07-24T10:39:09.758Z,46.78
2018-07-24T10:41:37.454Z,45.96
2018-07-24T10:44:05.226Z,45.54
2018-07-24T10:46:33.169Z,45.57
2018-07-24T10:49:00.863Z,46.11
2018-07-24T10:51:28.480Z,45.84
2018-07-24T10:53:56.085Z,45.83
2018-07-24T10:56:24.150Z,45.92
2018-07-24T10:58:51.990Z,45.13
2018-07-24T11:01:20.180Z,46.08
2018-07-24T11:03:47.886Z,46.20
2018-07-24T11:06:15.520Z,45.46
2018-07-24T11:08:43.719Z,45.26
2018-07-24T11:11:11.687Z,45.88
2018-07-24T11:13:39.829Z,45.38
2018-07-24T11:16:07.496Z,45.27
2018-07-24T11:18:35.160Z,46.10
2018-07-24T11:21:02.809Z,45.95
2018-07-24T11:23:30.566Z,45.74
2018-07-24T11:25:58.703Z,46.18
2018-07-24T11:28:26.598Z,45.26
2018-07-24T11:30:54.220Z,46.18
2018-07-24T11:33:21.854Z,45.52
2018-07-24T11:35:49.562Z,45.87
2018-07-24T11:38:17.237Z,45.88
2018-07-24T11:40:45.092Z,45.22
2018-07-24T11:43:13.278Z,45.37
2018-07-24T11:45:41.261Z,45.33
2018-07-24T11:48:09.211Z,45.88
2018-07-24T11:50:36.850Z,45.24
2018-07-24T11:53:04.509Z,46.28
2018-07-24T11:55:32.185Z,45.84
2018-07-24T11:57:59.813Z,46.01
2018-07-24T12:00:27.673Z,45.49
2018-07-24T12:02:55.879Z,45.67
2018-07-24T12:05:23.826Z,46.34
2018-07-24T12:07:51.522Z,45.53
2018-07-24T12:10:19.177Z,45.37
2018-07-24T12:12:47.367Z,45.84
2018-07-24T12:15:15.874Z,45.69
2018-07-24T12:17:43.445Z,45.45
2018-07-24T12:20:11.728Z,46.07
2018-07-24T12:22:40.096Z,45.73
2018-07-24T12:25:07.748Z,45.98
2018-07-24T12:27:35.424Z,45.30
2018-07-24T12:30:03.177Z,45.60
2018-07-24T12:32:31.426Z,45.61
2018-07-24T12:34:59.110Z,45.52
2018-07-24T12:37:26.724Z,45.41
2018-07-24T12:39:54.401Z,44.79
2018-07-24T12:42:22.457Z,44.83
2018-07-24T12:44:50.092Z,45.30
2018-07-24T12:47:17.797Z,44.80
2018-07-24T12:49:45.748Z,44.71
2018-07-24T12:52:13.396Z,44.25
2018-07-24T12:54:41.826Z,44.92
2018-07-24T12:57:09.455Z,45.03
2018-07-24T12:59:37.074Z,44.00
2018-07-24T13:02:04.851Z,44.92
2018-07-24T13:04:32.392Z,44.43
2018-07-24T13:07:00.583Z,44.05
2018-07-24T13:09:28.310Z,44.86
2018-07-24T13:11:56.490Z,44.70
2018-07-24T13:14:24.610Z,44.25
2018-07-24T13:16:52.277Z,44.04
2018-07-24T13:19:20.334Z,44.02
2018-07-24T13:21:48.039Z,44.56
2018-07-24T13:24:15.669Z,43.91
2018-07-24T13:26:43.347Z,44.03
2018-07-24T13:29:11.156Z,44.02
2018-07-24T13:31:38.807Z,44.51
2018-07-24T13:34:07.318Z,43.89
2018-07-24T13:36:35.532Z,43.62
2018-07-24T13:39:04.122Z,44.21
2018-07-24T13:41:31.795Z,43.60
2018-07-24T13:43:59.799Z,44.08
2018-07-24T13:46:27.413Z,44.31
2018-07-24T13:48:55.320Z,43.99
2018-07-24T13:51:22.958Z,43.35
2018-07-24T13:53:50.991Z,43.73
2018-07-24T13:56:19.174Z,43.48
2018-07-24T13:58:46.953Z,43.27
2018-07-24T14:01:15.224Z,43.99
2018-07-24T14:03:43.030Z,43.17
2018-07-24T14:06:10.950Z,43.90
2018-07-24T14:08:38.812Z,43.66
2018-07-24T14:11:07.079Z,43.73
2018-07-24T14:13:34.837Z,43.20
2018-07-24T14:16:02.520Z,43.83
2018-07-24T14:18:30.326Z,43.09
2018-07-24T14:20:57.953Z,42.95
2018-07-24T14:23:25.941Z,42.85
2018-07-24T14:25:53.785Z,43.26
2018-07-24T14:28:21.468Z,43.31
2018-07-24T14:30:49.256Z,42.83
2018-07-24T14:33:16.970Z,41.98
2018-07-24T14:35:45.201Z,41.05
2018-07-24T14:38:13.010Z,38.75
2018-07-24T14:40:41.109Z,36.21
2018-07-24T14:43:08.757Z,34.57
2018-07-24T14:45:37.100Z,33.63
2018-07-24T14:48:05.197Z,33.14
2018-07-24T14:50:33.166Z,32.47
2018-07-24T14:53:00.810Z,32.15
2018-07-24T14:55:29.210Z,32.16
2018-07-24T14:57:57.124Z,32.23
2018-07-24T15:00:25.145Z,31.34
2018-07-24T15:02:52.878Z,31.33
2018-07-24T15:05:20.619Z,31.76
2018-07-24T15:07:48.335Z,32.61
2018-07-24T15:10:15.958Z,33.96
2018-07-24T15:12:43.592Z,34.72
2018-07-24T15:15:11.667Z,36.46
2018-07-24T15:17:39.701Z,38.26
2018-07-24T15:20:07.485Z,39.12
2018-07-24T15:22:35.116Z,39.80
2018-07-24T15:25:02.826Z,40.03
2018-07-24T15:27:30.459Z,39.92
2018-07-24T15:29:58.429Z,39.28
2018-07-24T15:32:26.611Z,38.97
2018-07-24T15:34:54.543Z,39.74
2018-07-24T15:37:22.822Z,40.36
2018-07-24T15:39:50.481Z,40.39
2018-07-24T15:42:18.116Z,39.96
2018-07-24T15:44:46.177Z,39.17
2018-07-24T15:47:13.838Z,39.42
2018-07-24T15:49:41.505Z,39.60
2018-07-24T15:52:09.236Z,39.97
2018-07-24T15:54:36.845Z,40.25
2018-07-24T15:57:04.528Z,40.44
2018-07-24T15:59:32.436Z,41.00
2018-07-24T16:02:00.283Z,40.94
2018-07-24T16:04:28.254Z,40.62
2018-07-24T16:06:56.111Z,40.88
2018-07-24T16:09:23.730Z,41.03
2018-07-24T16:11:51.449Z,40.56
2018-07-24T16:14:19.340Z,41.02
2018-07-24T16:16:47.342Z,41.31
2018-07-24T16:19:14.978Z,41.39
2018-07-24T16:21:42.711Z,40.83
2018-07-24T16:24:10.437Z,41.00
2018-07-24T16:26:38.126Z,41.38
2018-07-24T16:29:06.295Z,40.82
2018-07-24T16:31:33.973Z,40.87
2018-07-24T16:34:01.942Z,40.87
2018-07-24T16:36:29.640Z,40.87
2018-07-24T16:38:57.566Z,41.05
2018-07-24T16:41:25.518Z,41.70
2018-07-24T16:43:53.240Z,41.65
2018-07-24T16:46:20.953Z,42.31
2018-07-24T16:48:48.599Z,42.40
2018-07-24T16:51:16.311Z,42.51
2018-07-24T16:53:43.978Z,41.87
2018-07-24T16:56:14.393Z,41.78
2018-07-24T16:58:42.507Z,42.05
2018-07-24T17:01:10.196Z,41.99
2018-07-24T17:03:38.375Z,41.54
2018-07-24T17:06:06.037Z,40.77
2018-07-24T17:08:33.994Z,40.42
2018-07-24T17:11:02.264Z,40.83
2018-07-24T17:13:30.274Z,40.24
2018-07-24T17:15:57.904Z,40.27
2018-07-24T17:18:25.594Z,40.76
2018-07-24T17:20:53.601Z,40.13
2018-07-24T17:23:21.275Z,40.70
2018-07-24T17:25:49.636Z,39.57
2018-07-24T17:28:17.748Z,40.09
2018-07-24T17:30:45.426Z,39.71
2018-07-24T17:33:13.386Z,39.49
2018-07-24T17:35:41.798Z,39.92
2018-07-24T17:38:10.149Z,39.71
2018-07-24T17:40:38.185Z,40.26
2018-07-24T17:43:05.883Z,39.51
2018-07-24T17:45:33.554Z,40.42
2018-07-24T17:48:01.371Z,40.21
2018-07-24T17:50:29.407Z,39.94
2018-07-24T17:52:57.272Z,40.39
2018-07-24T17:55:24.977Z,39.56
2018-07-24T17:57:52.677Z,39.42
2018-07-24T18:00:20.439Z,39.80
2018-07-24T18:02:48.146Z,39.36
2018-07-24T18:05:15.889Z,39.65
2018-07-24T18:07:43.577Z,39.88
2018-07-24T18:10:11.287Z,40.09
2018-07-24T18:12:39.064Z,39.79
2018-07-24T18:15:06.854Z,40.16
2018-07-24T18:17:34.912Z,39.66
2018-07-24T18:20:07.732Z,39.60
2018-07-24T18:22:36.106Z,39.91
2018-07-24T18:25:03.940Z,40.46
2018-07-24T18:27:31.778Z,40.22
2018-07-24T18:29:59.835Z,40.28
2018-07-24T18:32:27.613Z,40.78
2018-07-24T18:34:55.588Z,40.55
2018-07-24T18:37:23.364Z,40.99
2018-07-24T18:39:51.133Z,40.59
2018-07-24T18:42:19.284Z,41.20
2018-07-24T18:44:47.025Z,40.81
2018-07-24T18:47:14.858Z,40.93
2018-07-24T18:49:42.703Z,41.14
2018-07-24T18:52:10.419Z,41.22
2018-07-24T18:54:38.430Z,42.04
2018-07-24T18:57:06.204Z,41.48
2018-07-24T18:59:34.281Z,42.27
2018-07-24T19:02:02.252Z,42.04
2018-07-24T19:04:30.344Z,42.43
2018-07-24T19:06:58.414Z,42.62
2018-07-24T19:09:26.746Z,43.33
2018-07-24T19:11:54.507Z,43.88
2018-07-24T19:14:22.661Z,43.34
2018-07-24T19:16:50.497Z,42.67
2018-07-24T19:19:18.223Z,43.40
2018-07-24T19:21:45.974Z,42.81
2018-07-24T19:24:13.730Z,42.56
2018-07-24T19:26:41.955Z,43.46
2018-07-24T19:29:09.680Z,43.90
2018-07-24T19:31:37.779Z,43.69
2018-07-24T19:34:05.644Z,43.75
2018-07-24T19:36:33.527Z,44.82
2018-07-24T19:39:01.226Z,44.48
2018-07-24T19:41:28.880Z,45.05
2018-07-24T19:43:56.601Z,44.86
2018-07-24T19:46:24.254Z,44.96
2018-07-24T19:48:51.905Z,45.60
2018-07-24T19:51:20.297Z,45.96
2018-07-24T19:53:47.933Z,46.11
2018-07-24T19:56:15.548Z,45.91
2018-07-24T19:58:43.560Z,46.22
2018-07-24T20:01:11.575Z,45.80
2018-07-24T20:03:39.288Z,45.98
2018-07-24T20:06:07.413Z,46.49
2018-07-24T20:08:35.449Z,46.80
2018-07-24T20:11:03.104Z,46.07
2018-07-24T20:13:30.745Z,45.94
2018-07-24T20:15:58.636Z,47.14
2018-07-24T20:18:26.682Z,46.49
2018-07-24T20:20:54.420Z,47.34
2018-07-24T20:23:22.117Z,47.54
2018-07-24T20:25:49.786Z,47.73
2018-07-24T20:28:17.497Z,47.53
2018-07-24T20:30:46.013Z,47.71
2018-07-24T20:33:13.895Z,47.70
2018-07-24T20:35:41.600Z,47.78
2018-07-24T20:38:09.237Z,47.68
2018-07-24T20:40:36.896Z,48.09
2018-07-24T20:43:04.945Z,48.65
2018-07-24T20:45:32.903Z,48.08
2018-07-24T20:48:00.711Z,49.23
2018-07-24T20:50:28.372Z,49.08
2018-07-24T20:52:56.138Z,49.51
2018-07-24T20:55:23.821Z,50.17
2018-07-24T20:57:51.753Z,49.82
2018-07-24T21:00:19.674Z,49.35
2018-07-24T21:02:47.354Z,49.89
2018-07-24T21:05:15.499Z,49.40
2018-07-24T21:07:43.143Z,49.46
2018-07-24T21:10:18.854Z,49.54
2018-07-24T21:12:47.902Z,49.59
2018-07-24T21:15:16.173Z,50.13
2018-07-24T21:17:43.884Z,48.99
2018-07-24T21:20:11.716Z,49.23
2018-07-24T21:22:39.582Z,50.06
2018-07-24T21:25:07.828Z,49.78
2018-07-24T21:27:35.989Z,49.79
2018-07-24T21:30:04.456Z,49.92
2018-07-24T21:32:32.402Z,50.90
2018-07-24T21:35:00.737Z,50.80
2018-07-24T21:37:28.401Z,50.99
2018-07-24T21:39:56.248Z,50.53
2018-07-24T21:42:24.331Z,50.82
2018-07-24T21:44:51.896Z,49.97
2018-07-24T21:47:20.108Z,50.36
2018-07-24T21:49:47.744Z,49.69
2018-07-24T21:52:15.480Z,49.53
2018-07-24T21:54:43.398Z,49.94
2018-07-24T21:57:11.294Z,49.71
2018-07-24T21:59:39.441Z,50.32
2018-07-24T22:02:07.119Z,51.05
2018-07-24T22:04:35.395Z,51.61
2018-07-24T22:07:03.017Z,52.40
2018-07-24T22:09:30.905Z,51.83
2018-07-24T22:11:58.528Z,52.59
2018-07-24T22:14:26.418Z,52.80
2018-07-24T22:16:54.110Z,52.51
2018-07-24T22:19:22.378Z,52.76
2018-07-24T22:21:50.294Z,52.70
2018-07-24T22:24:17.973Z,52.37
2018-07-24T22:26:45.736Z,53.34
2018-07-24T22:29:13.601Z,53.52
2018-07-24T22:31:41.278Z,53.54
2018-07-24T22:34:09.152Z,52.96
2018-07-24T22:36:37.051Z,53.48
2018-07-24T22:39:08.067Z,53.68
2018-07-24T22:41:35.689Z,53.75
2018-07-24T22:44:03.360Z,54.29
2018-07-24T22:46:31.439Z,53.90
2018-07-24T22:48:59.082Z,54.34
2018-07-24T22:51:26.996Z,53.54
2018-07-24T22:53:54.904Z,53.26
2018-07-24T22:56:22.533Z,53.95
2018-07-24T22:58:50.325Z,54.07
2018-07-24T23:01:17.962Z,54.47
2018-07-24T23:03:46.646Z,55.14
2018-07-24T23:06:14.333Z,54.85
2018-07-24T23:08:42.222Z,54.71
2018-07-24T23:11:09.929Z,54.79
2018-07-24T23:13:38.150Z,55.00
2018-07-24T23:16:05.781Z,55.01
2018-07-24T23:18:33.467Z,55.21
2018-07-24T23:21:01.548Z,54.25
2018-07-24T23:23:29.258Z,54.85
2018-07-24T23:25:56.918Z,54.81
2018-07-24T23:28:24.545Z,55.25
2018-07-24T23:30:52.298Z,55.42
2018-07-24T23:33:20.734Z,56.43
2018-07-24T23:35:48.336Z,55.34
2018-07-24T23:38:16.566Z,55.62
2018-07-24T23:40:44.529Z,55.49
2018-07-24T23:43:12.149Z,55.62
2018-07-24T23:45:40.672Z,55.93
2018-07-24T23:48:08.585Z,56.53
2018-07-24T23:50:36.469Z,56.43
2018-07-24T23:53:04.168Z,55.74
2018-07-24T23:55:34.443Z,56.67
2018-07-24T23:58:02.765Z,56.47
